sensor_id;sensor_type;location;lat;lon;timestamp;pressure;altitude;pressure_sealevel;temperature;humidity
71966;BME280;59836;52.132;5.442;2023-02-15T00:01:09;103034.78;;;2.31;86.82
71966;BME280;59836;52.132;5.442;2023-02-15T00:03:35;103031.56;;;2.28;86.53
71966;BME280;59836;52.132;5.442;2023-02-15T00:06:03;103019.34;;;2.25;86.55
71966;BME280;59836;52.132;5.442;2023-02-15T00:08:30;103025.72;;;2.24;86.69
71966;BME280;59836;52.132;5.442;2023-02-15T00:11:04;103023.03;;;2.24;86.92
71966;BME280;59836;52.132;5.442;2023-02-15T00:13:31;103018.00;;;2.21;86.65
71966;BME280;59836;52.132;5.442;2023-02-15T00:16:11;103016.31;;;2.20;86.82
71966;BME280;59836;52.132;5.442;2023-02-15T00:18:39;103010.28;;;2.18;86.51
71966;BME280;59836;52.132;5.442;2023-02-15T00:21:13;103018.63;;;2.15;86.72
71966;BME280;59836;52.132;5.442;2023-02-15T00:23:39;103016.97;;;2.14;86.35
71966;BME280;59836;52.132;5.442;2023-02-15T00:26:09;103014.41;;;2.12;86.80
71966;BME280;59836;52.132;5.442;2023-02-15T00:28:41;103016.75;;;2.07;86.82
71966;BME280;59836;52.132;5.442;2023-02-15T00:31:13;103016.53;;;2.00;86.86
71966;BME280;59836;52.132;5.442;2023-02-15T00:33:41;103016.53;;;2.00;87.19
71966;BME280;59836;52.132;5.442;2023-02-15T00:36:09;103023.56;;;2.01;86.91
71966;BME280;59836;52.132;5.442;2023-02-15T00:38:36;103011.34;;;1.99;87.17
71966;BME280;59836;52.132;5.442;2023-02-15T00:41:06;103009.38;;;2.01;87.18
71966;BME280;59836;52.132;5.442;2023-02-15T00:43:33;103002.47;;;1.98;87.18
71966;BME280;59836;52.132;5.442;2023-02-15T00:46:03;103003.34;;;1.99;87.26
71966;BME280;59836;52.132;5.442;2023-02-15T00:48:37;102990.94;;;1.98;87.08
71966;BME280;59836;52.132;5.442;2023-02-15T00:51:03;102986.72;;;1.95;87.09
71966;BME280;59836;52.132;5.442;2023-02-15T00:53:30;102988.72;;;1.93;87.24
71966;BME280;59836;52.132;5.442;2023-02-15T00:55:58;102990.34;;;1.86;86.98
71966;BME280;59836;52.132;5.442;2023-02-15T00:58:29;102991.84;;;1.80;87.37
71966;BME280;59836;52.132;5.442;2023-02-15T01:01:02;102994.66;;;1.79;87.61
71966;BME280;59836;52.132;5.442;2023-02-15T01:03:30;102990.97;;;1.80;87.52
71966;BME280;59836;52.132;5.442;2023-02-15T01:05:57;102991.97;;;1.79;87.32
71966;BME280;59836;52.132;5.442;2023-02-15T01:08:24;102995.66;;;1.77;87.54
71966;BME280;59836;52.132;5.442;2023-02-15T01:10:51;102995.66;;;1.77;87.46
71966;BME280;59836;52.132;5.442;2023-02-15T01:13:17;102988.25;;;1.71;87.58
71966;BME280;59836;52.132;5.442;2023-02-15T01:15:52;102991.09;;;1.70;87.46
71966;BME280;59836;52.132;5.442;2023-02-15T01:18:19;102992.09;;;1.69;87.73
71966;BME280;59836;52.132;5.442;2023-02-15T01:20:46;102992.91;;;1.69;87.18
71966;BME280;59836;52.132;5.442;2023-02-15T01:23:14;102979.53;;;1.69;87.15
71966;BME280;59836;52.132;5.442;2023-02-15T01:25:40;102977.19;;;1.66;87.12
71966;BME280;59836;52.132;5.442;2023-02-15T01:28:07;102978.03;;;1.67;87.05
71966;BME280;59836;52.132;5.442;2023-02-15T01:30:38;102973.50;;;1.67;86.85
71966;BME280;59836;52.132;5.442;2023-02-15T01:33:04;102964.97;;;1.64;87.07
71966;BME280;59836;52.132;5.442;2023-02-15T01:35:31;102968.47;;;1.64;87.26
71966;BME280;59836;52.132;5.442;2023-02-15T01:37:58;102967.09;;;1.60;87.07
71966;BME280;59836;52.132;5.442;2023-02-15T01:40:25;102961.63;;;1.61;86.88
71966;BME280;59836;52.132;5.442;2023-02-15T01:42:55;102956.41;;;1.60;86.89
71966;BME280;59836;52.132;5.442;2023-02-15T01:45:28;102956.75;;;1.57;86.82
71966;BME280;59836;52.132;5.442;2023-02-15T01:48:32;102961.25;;;1.56;87.09
71966;BME280;59836;52.132;5.442;2023-02-15T01:51:00;102949.72;;;1.56;87.09
71966;BME280;59836;52.132;5.442;2023-02-15T01:53:43;102946.38;;;1.54;86.95
71966;BME280;59836;52.132;5.442;2023-02-15T01:56:16;102936.81;;;1.51;86.84
71966;BME280;59836;52.132;5.442;2023-02-15T01:58:44;102948.69;;;1.49;86.60
71966;BME280;59836;52.132;5.442;2023-02-15T02:01:15;102950.66;;;1.46;86.88
71966;BME280;59836;52.132;5.442;2023-02-15T02:03:57;102950.97;;;1.43;86.72
71966;BME280;59836;52.132;5.442;2023-02-15T02:06:26;102941.41;;;1.41;87.13
71966;BME280;59836;52.132;5.442;2023-02-15T02:08:56;102943.56;;;1.37;87.10
71966;BME280;59836;52.132;5.442;2023-02-15T02:11:22;102946.88;;;1.31;87.03
71966;BME280;59836;52.132;5.442;2023-02-15T02:13:50;102943.50;;;1.29;87.13
71966;BME280;59836;52.132;5.442;2023-02-15T02:16:25;102936.19;;;1.31;87.00
71966;BME280;59836;52.132;5.442;2023-02-15T02:25:17;102934.81;;;1.27;87.10
71966;BME280;59836;52.132;5.442;2023-02-15T02:37:24;102915.19;;;1.18;86.84
71966;BME280;59836;52.132;5.442;2023-02-15T02:43:13;102907.16;;;1.18;86.76
71966;BME280;59836;52.132;5.442;2023-02-15T02:46:13;102901.97;;;1.16;86.80
71966;BME280;59836;52.132;5.442;2023-02-15T02:48:36;102898.63;;;1.14;87.02
71966;BME280;59836;52.132;5.442;2023-02-15T02:51:05;102894.09;;;1.15;86.90
71966;BME280;59836;52.132;5.442;2023-02-15T02:53:32;102886.25;;;1.13;86.59
71966;BME280;59836;52.132;5.442;2023-02-15T02:56:19;102888.25;;;1.11;87.18
71966;BME280;59836;52.132;5.442;2023-02-15T02:59:09;102893.59;;;1.11;87.08
71966;BME280;59836;52.132;5.442;2023-02-15T03:04:47;102886.19;;;1.05;86.80
71966;BME280;59836;52.132;5.442;2023-02-15T03:07:26;102879.47;;;1.01;87.27
71966;BME280;59836;52.132;5.442;2023-02-15T03:09:57;102887.19;;;1.04;86.76
71966;BME280;59836;52.132;5.442;2023-02-15T03:12:33;102878.47;;;1.02;87.10
71966;BME280;59836;52.132;5.442;2023-02-15T03:15:10;102875.81;;;1.02;87.07
71966;BME280;59836;52.132;5.442;2023-02-15T03:17:42;102876.81;;;1.01;86.84
71966;BME280;59836;52.132;5.442;2023-02-15T03:20:21;102866.13;;;1.01;86.96
71966;BME280;59836;52.132;5.442;2023-02-15T03:22:55;102861.09;;;0.98;86.91
71966;BME280;59836;52.132;5.442;2023-02-15T03:25:42;102863.06;;;0.96;86.92
71966;BME280;59836;52.132;5.442;2023-02-15T03:28:41;102858.59;;;0.96;86.85
71966;BME280;59836;52.132;5.442;2023-02-15T03:31:20;102856.34;;;0.92;86.84
71966;BME280;59836;52.132;5.442;2023-02-15T03:34:03;102859.03;;;0.92;86.83
71966;BME280;59836;52.132;5.442;2023-02-15T03:36:59;102858.03;;;0.93;87.07
71966;BME280;59836;52.132;5.442;2023-02-15T03:39:33;102852.69;;;0.93;86.71
71966;BME280;59836;52.132;5.442;2023-02-15T03:44:44;102849.34;;;0.91;87.11
71966;BME280;59836;52.132;5.442;2023-02-15T03:47:25;102847.97;;;0.86;87.08
71966;BME280;59836;52.132;5.442;2023-02-15T03:50:21;102846.59;;;0.82;86.95
71966;BME280;59836;52.132;5.442;2023-02-15T03:53:10;102844.59;;;0.84;86.94
71966;BME280;59836;52.132;5.442;2023-02-15T03:55:48;102848.28;;;0.83;87.02
71966;BME280;59836;52.132;5.442;2023-02-15T03:58:21;102849.13;;;0.84;87.10
71966;BME280;59836;52.132;5.442;2023-02-15T04:01:34;102844.91;;;0.81;87.01
71966;BME280;59836;52.132;5.442;2023-02-15T04:04:28;102837.75;;;0.82;86.94
71966;BME280;59836;52.132;5.442;2023-02-15T04:06:56;102837.91;;;0.80;86.96
71966;BME280;59836;52.132;5.442;2023-02-15T04:09:23;102840.56;;;0.80;87.25
71966;BME280;59836;52.132;5.442;2023-02-15T04:12:26;102843.84;;;0.74;87.19
71966;BME280;59836;52.132;5.442;2023-02-15T04:15:12;102838.50;;;0.74;86.88
71966;BME280;59836;52.132;5.442;2023-02-15T04:17:58;102841.88;;;0.76;87.21
71966;BME280;59836;52.132;5.442;2023-02-15T04:20:38;102834.84;;;0.75;86.73
71966;BME280;59836;52.132;5.442;2023-02-15T04:23:31;102833.19;;;0.74;86.96
71966;BME280;59836;52.132;5.442;2023-02-15T04:26:17;102837.69;;;0.73;86.83
71966;BME280;59836;52.132;5.442;2023-02-15T04:28:58;102839.19;;;0.76;87.28
71966;BME280;59836;52.132;5.442;2023-02-15T04:31:35;102840.19;;;0.75;87.27
71966;BME280;59836;52.132;5.442;2023-02-15T04:34:02;102836.00;;;0.72;87.33
71966;BME280;59836;52.132;5.442;2023-02-15T04:36:28;102834.16;;;0.73;87.52
71966;BME280;59836;52.132;5.442;2023-02-15T04:39:13;102833.19;;;0.74;87.22
71966;BME280;59836;52.132;5.442;2023-02-15T04:41:58;102826.16;;;0.73;87.44
71966;BME280;59836;52.132;5.442;2023-02-15T04:44:38;102814.47;;;0.74;87.00
71966;BME280;59836;52.132;5.442;2023-02-15T04:47:04;102820.81;;;0.73;87.34
71966;BME280;59836;52.132;5.442;2023-02-15T04:49:31;102815.78;;;0.70;86.89
71966;BME280;59836;52.132;5.442;2023-02-15T04:51:57;102814.09;;;0.69;87.37
71966;BME280;59836;52.132;5.442;2023-02-15T04:54:31;102811.75;;;0.66;87.36
71966;BME280;59836;52.132;5.442;2023-02-15T04:56:58;102816.94;;;0.67;87.28
71966;BME280;59836;52.132;5.442;2023-02-15T04:59:30;102810.75;;;0.67;87.29
71966;BME280;59836;52.132;5.442;2023-02-15T05:01:57;102809.06;;;0.66;87.21
71966;BME280;59836;52.132;5.442;2023-02-15T05:04:24;102808.25;;;0.65;87.71
71966;BME280;59836;52.132;5.442;2023-02-15T05:06:51;102806.09;;;0.69;87.86
71966;BME280;59836;52.132;5.442;2023-02-15T05:09:17;102812.13;;;0.71;87.37
71966;BME280;59836;52.132;5.442;2023-02-15T05:11:47;102813.78;;;0.72;87.20
71966;BME280;59836;52.132;5.442;2023-02-15T05:14:25;102810.97;;;0.73;87.44
71966;BME280;59836;52.132;5.442;2023-02-15T05:17:05;102807.31;;;0.75;87.55
71966;BME280;59836;52.132;5.442;2023-02-15T05:19:43;102811.81;;;0.74;87.73
71966;BME280;59836;52.132;5.442;2023-02-15T05:22:09;102801.00;;;0.76;87.51
71966;BME280;59836;52.132;5.442;2023-02-15T05:24:41;102797.47;;;0.75;87.74
71966;BME280;59836;52.132;5.442;2023-02-15T05:27:26;102799.13;;;0.76;87.81
71966;BME280;59836;52.132;5.442;2023-02-15T05:30:11;102793.78;;;0.76;87.79
71966;BME280;59836;52.132;5.442;2023-02-15T05:32:38;102798.31;;;0.76;87.35
71966;BME280;59836;52.132;5.442;2023-02-15T05:35:14;102801.00;;;0.76;87.87
71966;BME280;59836;52.132;5.442;2023-02-15T05:37:45;102804.47;;;0.76;87.48
71966;BME280;59836;52.132;5.442;2023-02-15T05:40:11;102810.31;;;0.71;87.89
71966;BME280;59836;52.132;5.442;2023-02-15T05:42:51;102804.78;;;0.73;87.42
71966;BME280;59836;52.132;5.442;2023-02-15T05:45:30;102805.78;;;0.72;87.29
71966;BME280;59836;52.132;5.442;2023-02-15T05:47:56;102802.44;;;0.70;87.67
71966;BME280;59836;52.132;5.442;2023-02-15T05:50:24;102803.41;;;0.69;87.60
71966;BME280;59836;52.132;5.442;2023-02-15T05:52:51;102803.41;;;0.69;87.23
71966;BME280;59836;52.132;5.442;2023-02-15T05:55:22;102810.75;;;0.67;87.52
71966;BME280;59836;52.132;5.442;2023-02-15T05:57:51;102802.06;;;0.65;87.42
71966;BME280;59836;52.132;5.442;2023-02-15T06:00:31;102800.06;;;0.67;87.36
71966;BME280;59836;52.132;5.442;2023-02-15T06:02:57;102803.72;;;0.66;87.85
71966;BME280;59836;52.132;5.442;2023-02-15T06:05:54;102798.06;;;0.69;87.86
71966;BME280;59836;52.132;5.442;2023-02-15T06:11:46;102797.56;;;0.65;87.92
71966;BME280;59836;52.132;5.442;2023-02-15T06:14:30;102798.38;;;0.66;87.86
71966;BME280;59836;52.132;5.442;2023-02-15T06:17:01;102793.03;;;0.66;87.81
71966;BME280;59836;52.132;5.442;2023-02-15T06:19:28;102799.38;;;0.65;88.11
71966;BME280;59836;52.132;5.442;2023-02-15T06:22:01;102782.38;;;0.66;88.09
71966;BME280;59836;52.132;5.442;2023-02-15T06:24:27;102787.72;;;0.66;87.69
71966;BME280;59836;52.132;5.442;2023-02-15T06:26:56;102790.25;;;0.67;88.03
71966;BME280;59836;52.132;5.442;2023-02-15T06:29:29;102792.75;;;0.69;87.92
71966;BME280;59836;52.132;5.442;2023-02-15T06:32:01;102783.72;;;0.70;88.27
71966;BME280;59836;52.132;5.442;2023-02-15T06:34:29;102783.72;;;0.70;88.00
71966;BME280;59836;52.132;5.442;2023-02-15T06:36:59;102782.75;;;0.71;88.21
71966;BME280;59836;52.132;5.442;2023-02-15T06:39:37;102782.75;;;0.71;88.00
71966;BME280;59836;52.132;5.442;2023-02-15T06:42:03;102787.78;;;0.74;88.22
71966;BME280;59836;52.132;5.442;2023-02-15T06:44:30;102783.13;;;0.76;88.19
71966;BME280;59836;52.132;5.442;2023-02-15T06:47:03;102786.78;;;0.75;88.33
71966;BME280;59836;52.132;5.442;2023-02-15T06:50:06;102778.09;;;0.73;88.72
71966;BME280;59836;52.132;5.442;2023-02-15T06:52:33;102786.78;;;0.75;88.30
71966;BME280;59836;52.132;5.442;2023-02-15T06:54:59;102785.09;;;0.74;88.32
71966;BME280;59836;52.132;5.442;2023-02-15T06:57:26;102789.44;;;0.75;88.54
71966;BME280;59836;52.132;5.442;2023-02-15T06:59:52;102782.59;;;0.72;88.46
71966;BME280;59836;52.132;5.442;2023-02-15T07:02:24;102784.41;;;0.72;88.45
71966;BME280;59836;52.132;5.442;2023-02-15T07:04:50;102786.94;;;0.73;88.44
71966;BME280;59836;52.132;5.442;2023-02-15T07:07:17;102785.09;;;0.74;88.23
71966;BME280;59836;52.132;5.442;2023-02-15T07:09:44;102787.63;;;0.76;88.44
71966;BME280;59836;52.132;5.442;2023-02-15T07:12:11;102781.44;;;0.75;88.59
71966;BME280;59836;52.132;5.442;2023-02-15T07:15:10;102783.13;;;0.76;88.55
71966;BME280;59836;52.132;5.442;2023-02-15T07:17:38;102776.63;;;0.79;88.44
71966;BME280;59836;52.132;5.442;2023-02-15T07:22:49;102781.88;;;0.88;88.96
71966;BME280;59836;52.132;5.442;2023-02-15T07:25:15;102783.22;;;0.93;88.75
71966;BME280;59836;52.132;5.442;2023-02-15T07:27:42;102775.22;;;0.93;88.91
71966;BME280;59836;52.132;5.442;2023-02-15T07:30:14;102770.56;;;0.95;88.88
71966;BME280;59836;52.132;5.442;2023-02-15T07:32:41;102766.88;;;0.96;88.71
71966;BME280;59836;52.132;5.442;2023-02-15T07:35:30;102754.22;;;0.98;88.93
71966;BME280;59836;52.132;5.442;2023-02-15T07:37:56;102753.91;;;1.01;89.33
71966;BME280;59836;52.132;5.442;2023-02-15T07:40:39;102755.25;;;1.05;88.99
71966;BME280;59836;52.132;5.442;2023-02-15T07:43:06;102750.44;;;1.09;89.03
71966;BME280;59836;52.132;5.442;2023-02-15T07:45:32;102747.28;;;1.13;89.17
71966;BME280;59836;52.132;5.442;2023-02-15T07:48:03;102744.97;;;1.18;89.38
71966;BME280;59836;52.132;5.442;2023-02-15T07:50:30;102748.00;;;1.24;89.31
71966;BME280;59836;52.132;5.442;2023-02-15T07:52:56;102749.88;;;1.31;89.59
71966;BME280;59836;52.132;5.442;2023-02-15T07:55:23;102747.72;;;1.35;89.98
71966;BME280;59836;52.132;5.442;2023-02-15T07:57:51;102741.56;;;1.43;89.90
71966;BME280;59836;52.132;5.442;2023-02-15T08:00:19;102735.44;;;1.51;89.98
71966;BME280;59836;52.132;5.442;2023-02-15T08:02:50;102732.94;;;1.57;90.29
71966;BME280;59836;52.132;5.442;2023-02-15T08:05:38;102744.13;;;1.61;89.68
71966;BME280;59836;52.132;5.442;2023-02-15T08:08:05;102734.47;;;1.68;90.17
71966;BME280;59836;52.132;5.442;2023-02-15T08:10:32;102731.34;;;1.81;90.15
71966;BME280;59836;52.132;5.442;2023-02-15T08:13:17;102726.47;;;1.85;89.91
71966;BME280;59836;52.132;5.442;2023-02-15T08:15:50;102727.81;;;1.89;89.91
71966;BME280;59836;52.132;5.442;2023-02-15T08:18:16;102722.47;;;1.97;90.02
71966;BME280;59836;52.132;5.442;2023-02-15T08:20:49;102734.88;;;2.06;89.96
71966;BME280;59836;52.132;5.442;2023-02-15T08:23:15;102726.34;;;2.19;90.03
71966;BME280;59836;52.132;5.442;2023-02-15T08:25:42;102726.19;;;2.29;89.88
71966;BME280;59836;52.132;5.442;2023-02-15T08:28:08;102725.19;;;2.39;89.75
71966;BME280;59836;52.132;5.442;2023-02-15T08:30:34;102722.66;;;2.54;90.11
71966;BME280;59836;52.132;5.442;2023-02-15T08:33:02;102722.66;;;2.70;89.94
71966;BME280;59836;52.132;5.442;2023-02-15T08:35:28;102714.38;;;2.88;90.11
71966;BME280;59836;52.132;5.442;2023-02-15T08:37:55;102717.34;;;3.10;89.92
71966;BME280;59836;52.132;5.442;2023-02-15T08:40:21;102706.91;;;3.23;89.67
71966;BME280;59836;52.132;5.442;2023-02-15T08:42:47;102705.53;;;3.36;89.11
71966;BME280;59836;52.132;5.442;2023-02-15T08:45:14;102708.81;;;3.46;89.28
71966;BME280;59836;52.132;5.442;2023-02-15T08:47:40;102703.41;;;3.54;88.55
71966;BME280;59836;52.132;5.442;2023-02-15T08:50:07;102701.88;;;3.60;88.45
71966;BME280;59836;52.132;5.442;2023-02-15T08:52:33;102694.47;;;3.62;88.48
71966;BME280;59836;52.132;5.442;2023-02-15T08:55:00;102701.94;;;3.75;88.28
71966;BME280;59836;52.132;5.442;2023-02-15T08:57:27;102693.78;;;3.92;88.16
71966;BME280;59836;52.132;5.442;2023-02-15T08:59:53;102696.34;;;4.08;87.58
71966;BME280;59836;52.132;5.442;2023-02-15T09:02:21;102690.00;;;4.24;87.17
71966;BME280;59836;52.132;5.442;2023-02-15T09:04:47;102690.41;;;4.36;86.77
71966;BME280;59836;52.132;5.442;2023-02-15T09:07:14;102680.25;;;4.47;87.17
71966;BME280;59836;52.132;5.442;2023-02-15T09:09:40;102683.31;;;4.58;86.49
71966;BME280;59836;52.132;5.442;2023-02-15T09:12:07;102676.94;;;4.75;86.60
71966;BME280;59836;52.132;5.442;2023-02-15T09:14:33;102683.97;;;4.76;86.34
71966;BME280;59836;52.132;5.442;2023-02-15T09:17:00;102676.00;;;4.67;86.88
71966;BME280;59836;52.132;5.442;2023-02-15T09:19:27;102678.50;;;4.69;86.68
71966;BME280;59836;52.132;5.442;2023-02-15T09:21:53;102678.97;;;4.72;86.20
71966;BME280;59836;52.132;5.442;2023-02-15T09:24:20;102675.28;;;4.73;86.20
71966;BME280;59836;52.132;5.442;2023-02-15T09:26:48;102673.75;;;4.86;86.24
71966;BME280;59836;52.132;5.442;2023-02-15T09:29:15;102672.66;;;4.95;85.39
71966;BME280;59836;52.132;5.442;2023-02-15T09:31:45;102676.91;;;5.05;85.42
71966;BME280;59836;52.132;5.442;2023-02-15T09:34:13;102679.44;;;5.06;85.31
71966;BME280;59836;52.132;5.442;2023-02-15T09:36:40;102683.41;;;5.10;85.51
71966;BME280;59836;52.132;5.442;2023-02-15T09:39:16;102686.19;;;5.17;85.23
71966;BME280;59836;52.132;5.442;2023-02-15T09:44:42;102685.06;;;5.26;85.60
71966;BME280;59836;52.132;5.442;2023-02-15T09:47:44;102674.28;;;5.26;85.44
71966;BME280;59836;52.132;5.442;2023-02-15T09:50:41;102678.91;;;5.32;85.63
71966;BME280;59836;52.132;5.442;2023-02-15T09:53:42;102672.97;;;5.37;85.06
71966;BME280;59836;52.132;5.442;2023-02-15T09:56:29;102664.34;;;5.42;85.11
71966;BME280;59836;52.132;5.442;2023-02-15T10:10:57;102679.47;;;5.86;83.94
71966;BME280;59836;52.132;5.442;2023-02-15T10:16:35;102679.19;;;5.96;83.00
71966;BME280;59836;52.132;5.442;2023-02-15T10:19:19;102677.59;;;6.02;82.73
71966;BME280;59836;52.132;5.442;2023-02-15T10:22:31;102676.00;;;6.08;82.53
71966;BME280;59836;52.132;5.442;2023-02-15T10:25:16;102670.66;;;6.14;82.14
71966;BME280;59836;52.132;5.442;2023-02-15T10:27:47;102678.59;;;6.23;82.16
71966;BME280;59836;52.132;5.442;2023-02-15T10:30:32;102674.94;;;6.30;81.96
71966;BME280;59836;52.132;5.442;2023-02-15T10:33:11;102678.72;;;6.36;81.54
71966;BME280;59836;52.132;5.442;2023-02-15T10:36:08;102681.25;;;6.44;81.61
71966;BME280;59836;52.132;5.442;2023-02-15T10:38:47;102672.63;;;6.56;80.80
71966;BME280;59836;52.132;5.442;2023-02-15T10:41:42;102684.28;;;6.63;80.85
71966;BME280;59836;52.132;5.442;2023-02-15T10:44:54;102680.19;;;6.67;80.38
71966;BME280;59836;52.132;5.442;2023-02-15T10:47:45;102687.72;;;6.78;80.27
71966;BME280;59836;52.132;5.442;2023-02-15T10:56:24;102671.22;;;7.02;79.36
71966;BME280;59836;52.132;5.442;2023-02-15T11:01:58;102666.72;;;7.16;79.28
71966;BME280;59836;52.132;5.442;2023-02-15T11:04:42;102654.72;;;7.25;79.27
71966;BME280;59836;52.132;5.442;2023-02-15T11:07:26;102651.44;;;7.36;78.79
71966;BME280;59836;52.132;5.442;2023-02-15T11:10:01;102658.09;;;7.47;78.82
71966;BME280;59836;52.132;5.442;2023-02-15T11:12:32;102643.59;;;7.55;78.32
71966;BME280;59836;52.132;5.442;2023-02-15T11:17:59;102644.25;;;7.71;77.92
71966;BME280;59836;52.132;5.442;2023-02-15T11:20:36;102643.66;;;7.82;77.93
71966;BME280;59836;52.132;5.442;2023-02-15T11:23:12;102641.16;;;7.87;77.15
71966;BME280;59836;52.132;5.442;2023-02-15T11:25:45;102629.72;;;7.92;76.89
71966;BME280;59836;52.132;5.442;2023-02-15T11:28:24;102625.78;;;7.94;76.64
71966;BME280;59836;52.132;5.442;2023-02-15T11:30:55;102626.19;;;7.98;76.60
71966;BME280;59836;52.132;5.442;2023-02-15T11:33:27;102621.59;;;7.98;76.46
71966;BME280;59836;52.132;5.442;2023-02-15T11:36:03;102624.91;;;8.01;76.90
71966;BME280;59836;52.132;5.442;2023-02-15T11:38:32;102610.19;;;8.03;76.27
71966;BME280;59836;52.132;5.442;2023-02-15T11:41:05;102606.66;;;8.09;75.65
71966;BME280;59836;52.132;5.442;2023-02-15T11:43:41;102606.00;;;8.14;76.16
71966;BME280;59836;52.132;5.442;2023-02-15T11:46:12;102598.94;;;8.20;75.67
71966;BME280;59836;52.132;5.442;2023-02-15T11:48:42;102591.44;;;8.28;75.63
71966;BME280;59836;52.132;5.442;2023-02-15T11:51:13;102578.13;;;8.34;75.61
71966;BME280;59836;52.132;5.442;2023-02-15T11:53:40;102573.53;;;8.41;75.96
71966;BME280;59836;52.132;5.442;2023-02-15T11:56:15;102576.44;;;8.46;75.17
71966;BME280;59836;52.132;5.442;2023-02-15T11:59:08;102566.88;;;8.50;75.42
71966;BME280;59836;52.132;5.442;2023-02-15T12:01:55;102572.06;;;8.59;75.95
71966;BME280;59836;52.132;5.442;2023-02-15T12:04:26;102554.56;;;8.61;75.54
71966;BME280;59836;52.132;5.442;2023-02-15T12:07:13;102554.13;;;8.71;75.48
71966;BME280;59836;52.132;5.442;2023-02-15T12:10:42;102556.59;;;8.79;74.90
71966;BME280;59836;52.132;5.442;2023-02-15T12:13:16;102559.47;;;8.84;74.75
71966;BME280;59836;52.132;5.442;2023-02-15T12:15:45;102569.00;;;8.94;73.62
71966;BME280;59836;52.132;5.442;2023-02-15T12:18:35;102557.91;;;9.02;73.80
71966;BME280;59836;52.132;5.442;2023-02-15T12:21:12;102551.44;;;9.03;73.55
71966;BME280;59836;52.132;5.442;2023-02-15T12:23:48;102552.66;;;9.07;73.74
71966;BME280;59836;52.132;5.442;2023-02-15T12:26:26;102550.56;;;9.09;73.73
71966;BME280;59836;52.132;5.442;2023-02-15T12:28:54;102544.09;;;9.17;73.94
71966;BME280;59836;52.132;5.442;2023-02-15T12:31:39;102545.09;;;9.23;73.71
71966;BME280;59836;52.132;5.442;2023-02-15T12:34:13;102552.78;;;9.26;73.29
71966;BME280;59836;52.132;5.442;2023-02-15T12:36:47;102543.78;;;9.32;72.96
71966;BME280;59836;52.132;5.442;2023-02-15T12:39:22;102545.59;;;9.38;73.42
71966;BME280;59836;52.132;5.442;2023-02-15T12:44:24;102529.06;;;9.53;72.78
71966;BME280;59836;52.132;5.442;2023-02-15T12:47:02;102532.91;;;9.64;72.38
71966;BME280;59836;52.132;5.442;2023-02-15T12:49:35;102524.56;;;9.66;71.75
71966;BME280;59836;52.132;5.442;2023-02-15T12:52:22;102519.75;;;9.68;72.08
71966;BME280;59836;52.132;5.442;2023-02-15T12:54:49;102516.31;;;9.79;71.90
71966;BME280;59836;52.132;5.442;2023-02-15T12:57:33;102515.88;;;9.82;72.02
71966;BME280;59836;52.132;5.442;2023-02-15T13:02:46;102515.50;;;9.79;72.03
71966;BME280;59836;52.132;5.442;2023-02-15T13:05:19;102515.50;;;9.79;71.82
71966;BME280;59836;52.132;5.442;2023-02-15T13:07:53;102525.72;;;9.77;71.47
71966;BME280;59836;52.132;5.442;2023-02-15T13:10:29;102522.00;;;9.71;71.94
71966;BME280;59836;52.132;5.442;2023-02-15T13:12:57;102510.41;;;9.64;71.46
71966;BME280;59836;52.132;5.442;2023-02-15T13:15:35;102510.63;;;9.62;71.57
71966;BME280;59836;52.132;5.442;2023-02-15T13:18:04;102503.13;;;9.64;71.99
71966;BME280;59836;52.132;5.442;2023-02-15T13:20:35;102489.34;;;9.66;72.16
71966;BME280;59836;52.132;5.442;2023-02-15T13:23:26;102488.69;;;9.70;72.47
71966;BME280;59836;52.132;5.442;2023-02-15T13:25:55;102485.53;;;9.73;72.26
71966;BME280;59836;52.132;5.442;2023-02-15T13:28:37;102481.75;;;9.74;71.87
71966;BME280;59836;52.132;5.442;2023-02-15T13:31:12;102490.72;;;9.75;71.97
71966;BME280;59836;52.132;5.442;2023-02-15T13:33:43;102492.00;;;9.72;72.09
71966;BME280;59836;52.132;5.442;2023-02-15T13:45:21;102492.59;;;9.74;72.36
71966;BME280;59836;52.132;5.442;2023-02-15T13:54:11;102478.81;;;9.76;72.28
71966;BME280;59836;52.132;5.442;2023-02-15T13:57:00;102476.34;;;9.74;72.36
71966;BME280;59836;52.132;5.442;2023-02-15T14:00:02;102474.69;;;9.73;72.64
71966;BME280;59836;52.132;5.442;2023-02-15T14:02:53;102476.34;;;9.74;72.86
71966;BME280;59836;52.132;5.442;2023-02-15T14:05:40;102463.84;;;9.73;72.91
71966;BME280;59836;52.132;5.442;2023-02-15T14:08:40;102466.31;;;9.75;73.23
71966;BME280;59836;52.132;5.442;2023-02-15T14:16:57;102474.09;;;9.71;73.69
71966;BME280;59836;52.132;5.442;2023-02-15T14:19:57;102468.44;;;9.73;73.68
71966;BME280;59836;52.132;5.442;2023-02-15T14:22:34;102480.09;;;9.73;73.36
71966;BME280;59836;52.132;5.442;2023-02-15T14:25:40;102481.75;;;9.74;73.23
71966;BME280;59836;52.132;5.442;2023-02-15T14:28:19;102467.16;;;9.75;73.37
71966;BME280;59836;52.132;5.442;2023-02-15T14:30:50;102470.47;;;9.78;73.28
71966;BME280;59836;52.132;5.442;2023-02-15T14:33:31;102462.97;;;9.80;72.99
71966;BME280;59836;52.132;5.442;2023-02-15T14:36:03;102460.47;;;9.78;72.98
71966;BME280;59836;52.132;5.442;2023-02-15T14:38:43;102470.47;;;9.78;73.04
71966;BME280;59836;52.132;5.442;2023-02-15T14:41:25;102458.81;;;9.77;73.42
71966;BME280;59836;52.132;5.442;2023-02-15T14:44:13;102462.81;;;9.74;73.05
71966;BME280;59836;52.132;5.442;2023-02-15T14:49:24;102463.84;;;9.73;74.03
71966;BME280;59836;52.132;5.442;2023-02-15T15:02:47;102463.09;;;9.66;73.49
71966;BME280;59836;52.132;5.442;2023-02-15T15:05:23;102455.41;;;9.63;73.55
71966;BME280;59836;52.132;5.442;2023-02-15T15:07:52;102461.63;;;9.64;73.61
71966;BME280;59836;52.132;5.442;2023-02-15T15:12:51;102469.41;;;9.60;73.58
71966;BME280;59836;52.132;5.442;2023-02-15T15:18:06;102468.19;;;9.56;73.58
71966;BME280;59836;52.132;5.442;2023-02-15T15:21:06;102463.81;;;9.55;73.04
71966;BME280;59836;52.132;5.442;2023-02-15T15:23:42;102467.81;;;9.52;72.98
71966;BME280;59836;52.132;5.442;2023-02-15T15:26:24;102463.44;;;9.51;73.48